sensor_id;sensor_type;location;lat;lon;timestamp;pressure;altitude;pressure_sealevel;temperature;humidity
49835;BME280;35729;52.090;13.162;2023-04-05T00:01:06;101929.53;;;-0.25;70.38
49835;BME280;35729;52.090;13.162;2023-04-05T00:03:36;101925.88;;;-0.30;70.26
49835;BME280;35729;52.090;13.162;2023-04-05T00:06:08;101920.56;;;-0.35;70.68
49835;BME280;35729;52.090;13.162;2023-04-05T00:08:43;101922.06;;;-0.40;70.86
49835;BME280;35729;52.090;13.162;2023-04-05T00:11:14;101916.66;;;-0.46;71.04
49835;BME280;35729;52.090;13.162;2023-04-05T00:13:43;101917.31;;;-0.51;71.14
49835;BME280;35729;52.090;13.162;2023-04-05T00:16:11;101925.75;;;-0.55;71.05
49835;BME280;35729;52.090;13.162;2023-04-05T00:18:40;101918.69;;;-0.59;71.33
49835;BME280;35729;52.090;13.162;2023-04-05T00:21:13;101914.22;;;-0.63;71.39
49835;BME280;35729;52.090;13.162;2023-04-05T00:23:41;101915.78;;;-0.67;71.47
49835;BME280;35729;52.090;13.162;2023-04-05T00:26:10;101907.84;;;-0.71;71.57
49835;BME280;35729;52.090;13.162;2023-04-05T00:28:38;101918.91;;;-0.74;71.70
49835;BME280;35729;52.090;13.162;2023-04-05T00:31:07;101907.47;;;-0.80;71.95
49835;BME280;35729;52.090;13.162;2023-04-05T00:33:35;101907.31;;;-0.84;72.14
49835;BME280;35729;52.090;13.162;2023-04-05T00:36:08;101905.31;;;-0.91;72.11
49835;BME280;35729;52.090;13.162;2023-04-05T00:38:40;101907.66;;;-0.95;72.20
49835;BME280;35729;52.090;13.162;2023-04-05T00:41:10;101906.59;;;-1.01;72.44
49835;BME280;35729;52.090;13.162;2023-04-05T00:43:39;101903.72;;;-1.07;72.41
49835;BME280;35729;52.090;13.162;2023-04-05T00:46:07;101906.78;;;-1.16;72.55
49835;BME280;35729;52.090;13.162;2023-04-05T00:48:37;101906.56;;;-1.20;72.73
49835;BME280;35729;52.090;13.162;2023-04-05T00:51:05;101903.78;;;-1.25;73.03
49835;BME280;35729;52.090;13.162;2023-04-05T00:53:39;101893.28;;;-1.29;73.04
49835;BME280;35729;52.090;13.162;2023-04-05T00:56:09;101900.72;;;-1.36;73.19
49835;BME280;35729;52.090;13.162;2023-04-05T00:58:37;101901.47;;;-1.38;73.32
49835;BME280;35729;52.090;13.162;2023-04-05T01:01:09;101905.59;;;-1.42;73.30
49835;BME280;35729;52.090;13.162;2023-04-05T01:03:44;101896.03;;;-1.44;73.53
49835;BME280;35729;52.090;13.162;2023-04-05T01:06:20;101903.63;;;-1.48;73.43
49835;BME280;35729;52.090;13.162;2023-04-05T01:08:59;101897.44;;;-1.51;73.65
49835;BME280;35729;52.090;13.162;2023-04-05T01:11:33;101900.75;;;-1.54;73.72
49835;BME280;35729;52.090;13.162;2023-04-05T01:14:02;101895.47;;;-1.57;73.93
49835;BME280;35729;52.090;13.162;2023-04-05T01:16:30;101889.22;;;-1.62;73.93
49835;BME280;35729;52.090;13.162;2023-04-05T01:18:59;101890.84;;;-1.64;73.96
49835;BME280;35729;52.090;13.162;2023-04-05T01:24:50;101892.19;;;-1.72;74.42
49835;BME280;35729;52.090;13.162;2023-04-05T01:27:25;101886.00;;;-1.76;74.44
49835;BME280;35729;52.090;13.162;2023-04-05T01:30:08;101890.22;;;-1.78;74.52
49835;BME280;35729;52.090;13.162;2023-04-05T01:32:52;101889.19;;;-1.82;74.76
49835;BME280;35729;52.090;13.162;2023-04-05T01:35:28;101886.38;;;-1.86;74.83
49835;BME280;35729;52.090;13.162;2023-04-05T01:38:03;101883.66;;;-1.89;74.88
49835;BME280;35729;52.090;13.162;2023-04-05T01:40:34;101881.84;;;-1.92;74.83
49835;BME280;35729;52.090;13.162;2023-04-05T01:43:11;101879.09;;;-1.95;75.26
49835;BME280;35729;52.090;13.162;2023-04-05T01:45:44;101879.03;;;-1.97;75.40
49835;BME280;35729;52.090;13.162;2023-04-05T01:48:13;101878.00;;;-2.00;75.82
49835;BME280;35729;52.090;13.162;2023-04-05T01:50:41;101883.88;;;-2.03;75.60
49835;BME280;35729;52.090;13.162;2023-04-05T01:53:10;101879.47;;;-2.05;75.94
49835;BME280;35729;52.090;13.162;2023-04-05T01:55:38;101883.75;;;-2.06;76.12
49835;BME280;35729;52.090;13.162;2023-04-05T01:58:07;101877.72;;;-2.06;76.13
49835;BME280;35729;52.090;13.162;2023-04-05T02:00:35;101879.41;;;-2.07;76.15
49835;BME280;35729;52.090;13.162;2023-04-05T02:03:06;101880.16;;;-2.09;75.97
49835;BME280;35729;52.090;13.162;2023-04-05T02:05:35;101874.19;;;-2.08;76.04
49835;BME280;35729;52.090;13.162;2023-04-05T02:08:03;101880.28;;;-2.06;75.98
49835;BME280;35729;52.090;13.162;2023-04-05T02:10:32;101879.25;;;-2.10;76.38
49835;BME280;35729;52.090;13.162;2023-04-05T02:13:00;101882.66;;;-2.11;76.39
49835;BME280;35729;52.090;13.162;2023-04-05T02:15:28;101880.81;;;-2.14;76.47
49835;BME280;35729;52.090;13.162;2023-04-05T02:17:58;101874.69;;;-2.16;76.54
49835;BME280;35729;52.090;13.162;2023-04-05T02:20:29;101870.13;;;-2.21;76.58
49835;BME280;35729;52.090;13.162;2023-04-05T02:22:59;101881.38;;;-2.19;76.71
49835;BME280;35729;52.090;13.162;2023-04-05T02:25:27;101877.78;;;-2.23;76.63
49835;BME280;35729;52.090;13.162;2023-04-05T02:27:56;101888.06;;;-2.23;76.78
49835;BME280;35729;52.090;13.162;2023-04-05T02:30:24;101889.69;;;-2.25;77.07
49835;BME280;35729;52.090;13.162;2023-04-05T02:32:53;101882.69;;;-2.27;77.16
49835;BME280;35729;52.090;13.162;2023-04-05T02:35:22;101883.41;;;-2.30;77.14
49835;BME280;35729;52.090;13.162;2023-04-05T02:37:53;101879.97;;;-2.31;77.23
49835;BME280;35729;52.090;13.162;2023-04-05T02:40:22;101885.03;;;-2.32;77.24
49835;BME280;35729;52.090;13.162;2023-04-05T02:42:50;101881.56;;;-2.33;77.46
49835;BME280;35729;52.090;13.162;2023-04-05T02:45:19;101875.44;;;-2.36;77.52
49835;BME280;35729;52.090;13.162;2023-04-05T02:47:47;101871.09;;;-2.37;77.46
49835;BME280;35729;52.090;13.162;2023-04-05T02:50:16;101875.31;;;-2.38;77.45
49835;BME280;35729;52.090;13.162;2023-04-05T02:52:45;101870.19;;;-2.38;77.56
49835;BME280;35729;52.090;13.162;2023-04-05T02:55:17;101871.88;;;-2.38;77.56
49835;BME280;35729;52.090;13.162;2023-04-05T02:57:45;101866.69;;;-2.40;77.74
49835;BME280;35729;52.090;13.162;2023-04-05T03:00:15;101867.41;;;-2.42;77.61
49835;BME280;35729;52.090;13.162;2023-04-05T03:02:43;101868.13;;;-2.45;77.69
49835;BME280;35729;52.090;13.162;2023-04-05T03:05:12;101869.75;;;-2.47;77.83
49835;BME280;35729;52.090;13.162;2023-04-05T03:07:43;101866.13;;;-2.51;78.02
49835;BME280;35729;52.090;13.162;2023-04-05T03:10:17;101861.66;;;-2.55;78.09
49835;BME280;35729;52.090;13.162;2023-04-05T03:12:46;101861.47;;;-2.58;78.30
49835;BME280;35729;52.090;13.162;2023-04-05T03:15:16;101858.84;;;-2.59;78.12
49835;BME280;35729;52.090;13.162;2023-04-05T03:17:44;101862.16;;;-2.62;78.42
49835;BME280;35729;52.090;13.162;2023-04-05T03:20:13;101857.72;;;-2.65;78.36
49835;BME280;35729;52.090;13.162;2023-04-05T03:22:41;101860.22;;;-2.66;78.60
49835;BME280;35729;52.090;13.162;2023-04-05T03:25:09;101864.41;;;-2.68;78.70
49835;BME280;35729;52.090;13.162;2023-04-05T03:27:41;101866.03;;;-2.70;78.49
49835;BME280;35729;52.090;13.162;2023-04-05T03:30:11;101858.94;;;-2.74;78.60
49835;BME280;35729;52.090;13.162;2023-04-05T03:32:39;101860.56;;;-2.76;78.63
49835;BME280;35729;52.090;13.162;2023-04-05T03:35:08;101858.75;;;-2.79;78.75
49835;BME280;35729;52.090;13.162;2023-04-05T03:37:37;101858.63;;;-2.81;78.73
49835;BME280;35729;52.090;13.162;2023-04-05T03:40:07;101850.84;;;-2.82;78.94
49835;BME280;35729;52.090;13.162;2023-04-05T03:42:36;101853.03;;;-2.90;78.76
49835;BME280;35729;52.090;13.162;2023-04-05T03:45:08;101854.81;;;-2.89;79.12
49835;BME280;35729;52.090;13.162;2023-04-05T03:47:36;101854.63;;;-2.92;78.96
49835;BME280;35729;52.090;13.162;2023-04-05T03:50:06;101861.41;;;-2.94;79.15
49835;BME280;35729;52.090;13.162;2023-04-05T03:52:35;101860.50;;;-2.95;79.18
49835;BME280;35729;52.090;13.162;2023-04-05T03:55:04;101860.34;;;-2.98;79.15
49835;BME280;35729;52.090;13.162;2023-04-05T03:57:34;101858.59;;;-2.99;79.08
49835;BME280;35729;52.090;13.162;2023-04-05T04:00:08;101860.28;;;-2.99;79.22
49835;BME280;35729;52.090;13.162;2023-04-05T04:02:41;101856.81;;;-3.00;79.22
49835;BME280;35729;52.090;13.162;2023-04-05T04:05:10;101848.97;;;-3.03;79.45
49835;BME280;35729;52.090;13.162;2023-04-05T04:07:40;101848.91;;;-3.04;79.66
49835;BME280;35729;52.090;13.162;2023-04-05T04:10:11;101842.66;;;-3.09;80.02
49835;BME280;35729;52.090;13.162;2023-04-05T04:12:39;101846.09;;;-3.09;80.18
49835;BME280;35729;52.090;13.162;2023-04-05T04:15:11;101849.44;;;-3.10;80.13
49835;BME280;35729;52.090;13.162;2023-04-05T04:17:39;101842.53;;;-3.11;80.19
49835;BME280;35729;52.090;13.162;2023-04-05T04:20:08;101848.66;;;-3.09;80.67
49835;BME280;35729;52.090;13.162;2023-04-05T04:22:37;101846.94;;;-3.08;81.11
49835;BME280;35729;52.090;13.162;2023-04-05T04:25:07;101850.56;;;-3.05;81.00
49835;BME280;35729;52.090;13.162;2023-04-05T04:27:38;101846.53;;;-3.00;80.53
49835;BME280;35729;52.090;13.162;2023-04-05T04:30:10;101842.38;;;-2.98;80.59
49835;BME280;35729;52.090;13.162;2023-04-05T04:32:42;101840.84;;;-2.94;80.45
49835;BME280;35729;52.090;13.162;2023-04-05T04:35:22;101847.03;;;-2.90;80.24
49835;BME280;35729;52.090;13.162;2023-04-05T04:37:54;101848.88;;;-2.88;79.97
49835;BME280;35729;52.090;13.162;2023-04-05T04:40:27;101842.22;;;-2.84;80.09
49835;BME280;35729;52.090;13.162;2023-04-05T04:42:57;101850.06;;;-2.81;80.05
49835;BME280;35729;52.090;13.162;2023-04-05T04:45:28;101845.06;;;-2.78;79.84
49835;BME280;35729;52.090;13.162;2023-04-05T04:48:02;101850.44;;;-2.73;80.18
49835;BME280;35729;52.090;13.162;2023-04-05T04:50:31;101837.53;;;-2.75;80.19
49835;BME280;35729;52.090;13.162;2023-04-05T04:53:00;101846.41;;;-2.68;79.94
49835;BME280;35729;52.090;13.162;2023-04-05T04:55:28;101844.03;;;-2.65;79.92
49835;BME280;35729;52.090;13.162;2023-04-05T04:57:58;101851.06;;;-2.61;80.00
49835;BME280;35729;52.090;13.162;2023-04-05T05:00:37;101856.34;;;-2.58;80.06
49835;BME280;35729;52.090;13.162;2023-04-05T05:03:06;101849.69;;;-2.54;79.99
49835;BME280;35729;52.090;13.162;2023-04-05T05:05:40;101850.72;;;-2.51;80.01
49835;BME280;35729;52.090;13.162;2023-04-05T05:08:09;101850.88;;;-2.48;80.00
49835;BME280;35729;52.090;13.162;2023-04-05T05:10:37;101850.16;;;-2.45;79.79
49835;BME280;35729;52.090;13.162;2023-04-05T05:13:06;101852.00;;;-2.42;79.94
49835;BME280;35729;52.090;13.162;2023-04-05T05:15:38;101849.47;;;-2.41;79.78
49835;BME280;35729;52.090;13.162;2023-04-05T05:18:06;101840.88;;;-2.41;79.97
49835;BME280;35729;52.090;13.162;2023-04-05T05:20:36;101842.66;;;-2.40;79.82
49835;BME280;35729;52.090;13.162;2023-04-05T05:23:05;101845.22;;;-2.40;79.94
49835;BME280;35729;52.090;13.162;2023-04-05T05:25:34;101841.78;;;-2.41;79.76
49835;BME280;35729;52.090;13.162;2023-04-05T05:28:02;101845.22;;;-2.40;79.92
49835;BME280;35729;52.090;13.162;2023-04-05T05:30:31;101838.31;;;-2.41;79.94
49835;BME280;35729;52.090;13.162;2023-04-05T05:33:02;101838.31;;;-2.41;79.79
49835;BME280;35729;52.090;13.162;2023-04-05T05:35:37;101846.00;;;-2.41;80.00
49835;BME280;35729;52.090;13.162;2023-04-05T05:38:06;101843.44;;;-2.41;79.83
49835;BME280;35729;52.090;13.162;2023-04-05T05:40:35;101843.31;;;-2.44;80.00
49835;BME280;35729;52.090;13.162;2023-04-05T05:43:03;101847.78;;;-2.40;79.75
49835;BME280;35729;52.090;13.162;2023-04-05T05:45:32;101848.59;;;-2.41;79.81
49835;BME280;35729;52.090;13.162;2023-04-05T05:48:03;101843.44;;;-2.41;80.00
49835;BME280;35729;52.090;13.162;2023-04-05T05:50:32;101845.22;;;-2.40;80.01
49835;BME280;35729;52.090;13.162;2023-04-05T05:53:00;101839.28;;;-2.39;79.87
49835;BME280;35729;52.090;13.162;2023-04-05T05:55:29;101835.84;;;-2.40;79.87
49835;BME280;35729;52.090;13.162;2023-04-05T05:57:57;101842.00;;;-2.36;79.95
49835;BME280;35729;52.090;13.162;2023-04-05T06:00:26;101848.09;;;-2.34;79.88
49835;BME280;35729;52.090;13.162;2023-04-05T06:02:54;101841.34;;;-2.32;80.05
49835;BME280;35729;52.090;13.162;2023-04-05T06:05:26;101841.53;;;-2.27;80.27
49835;BME280;35729;52.090;13.162;2023-04-05T06:08:00;101837.53;;;-2.22;80.03
49835;BME280;35729;52.090;13.162;2023-04-05T06:10:29;101841.22;;;-2.17;80.08
49835;BME280;35729;52.090;13.162;2023-04-05T06:12:58;101836.25;;;-2.13;79.92
49835;BME280;35729;52.090;13.162;2023-04-05T06:15:26;101837.53;;;-2.04;79.67
49835;BME280;35729;52.090;13.162;2023-04-05T06:17:56;101830.16;;;-1.97;79.88
49835;BME280;35729;52.090;13.162;2023-04-05T06:20:27;101831.41;;;-1.88;79.48
49835;BME280;35729;52.090;13.162;2023-04-05T06:22:55;101833.44;;;-1.81;79.29
49835;BME280;35729;52.090;13.162;2023-04-05T06:25:24;101836.47;;;-1.72;79.21
49835;BME280;35729;52.090;13.162;2023-04-05T06:28:14;101835.16;;;-1.62;79.14
49835;BME280;35729;52.090;13.162;2023-04-05T06:30:42;101828.69;;;-1.54;78.91
49835;BME280;35729;52.090;13.162;2023-04-05T06:33:10;101828.97;;;-1.48;78.81
49835;BME280;35729;52.090;13.162;2023-04-05T06:35:48;101824.22;;;-1.38;78.44
49835;BME280;35729;52.090;13.162;2023-04-05T06:38:16;101828.03;;;-1.30;78.53
49835;BME280;35729;52.090;13.162;2023-04-05T06:40:45;101825.72;;;-1.24;78.13
49835;BME280;35729;52.090;13.162;2023-04-05T06:43:13;101830.31;;;-1.17;78.08
49835;BME280;35729;52.090;13.162;2023-04-05T06:45:42;101829.78;;;-1.09;78.02
49835;BME280;35729;52.090;13.162;2023-04-05T06:48:10;101825.78;;;-1.03;77.79
49835;BME280;35729;52.090;13.162;2023-04-05T06:50:39;101824.41;;;-0.94;77.05
49835;BME280;35729;52.090;13.162;2023-04-05T06:53:10;101826.50;;;-0.86;77.47
49835;BME280;35729;52.090;13.162;2023-04-05T06:55:47;101819.91;;;-0.79;77.22
49835;BME280;35729;52.090;13.162;2023-04-05T06:58:16;101822.84;;;-0.70;77.27
49835;BME280;35729;52.090;13.162;2023-04-05T07:00:45;101830.09;;;-0.61;77.18
49835;BME280;35729;52.090;13.162;2023-04-05T07:03:13;101824.38;;;-0.54;76.87
49835;BME280;35729;52.090;13.162;2023-04-05T07:05:49;101820.44;;;-0.45;76.54
49835;BME280;35729;52.090;13.162;2023-04-05T07:08:20;101826.81;;;-0.36;76.79
49835;BME280;35729;52.090;13.162;2023-04-05T07:10:49;101821.97;;;-0.28;76.34
49835;BME280;35729;52.090;13.162;2023-04-05T07:13:19;101823.22;;;-0.18;76.25
49835;BME280;35729;52.090;13.162;2023-04-05T07:15:48;101815.03;;;-0.08;75.95
49835;BME280;35729;52.090;13.162;2023-04-05T07:18:17;101812.00;;;0.03;75.92
49835;BME280;35729;52.090;13.162;2023-04-05T07:20:47;101819.31;;;0.14;75.11
49835;BME280;35729;52.090;13.162;2023-04-05T07:23:16;101806.00;;;0.26;74.95
49835;BME280;35729;52.090;13.162;2023-04-05T07:25:47;101804.78;;;0.39;74.32
49835;BME280;35729;52.090;13.162;2023-04-05T07:28:16;101805.19;;;0.52;73.97
49835;BME280;35729;52.090;13.162;2023-04-05T07:30:44;101803.91;;;0.63;73.33
49835;BME280;35729;52.090;13.162;2023-04-05T07:33:19;101800.00;;;0.74;73.24
49835;BME280;35729;52.090;13.162;2023-04-05T07:35:51;101792.63;;;0.85;73.48
49835;BME280;35729;52.090;13.162;2023-04-05T07:38:19;101798.22;;;0.97;73.62
49835;BME280;35729;52.090;13.162;2023-04-05T07:40:51;101798.63;;;1.10;72.22
49835;BME280;35729;52.090;13.162;2023-04-05T07:43:19;101791.25;;;1.21;71.90
49835;BME280;35729;52.090;13.162;2023-04-05T07:45:50;101794.13;;;1.30;71.30
49835;BME280;35729;52.090;13.162;2023-04-05T07:48:19;101793.63;;;1.40;71.38
49835;BME280;35729;52.090;13.162;2023-04-05T07:50:47;101790.44;;;1.49;70.02
49835;BME280;35729;52.090;13.162;2023-04-05T07:53:18;101783.03;;;1.60;70.64
49835;BME280;35729;52.090;13.162;2023-04-05T07:55:51;101777.31;;;1.70;69.87
49835;BME280;35729;52.090;13.162;2023-04-05T07:58:22;101783.72;;;1.82;67.34
49835;BME280;35729;52.090;13.162;2023-04-05T08:00:50;101789.22;;;1.92;67.77
49835;BME280;35729;52.090;13.162;2023-04-05T08:03:19;101787.81;;;2.02;65.40
49835;BME280;35729;52.090;13.162;2023-04-05T08:05:48;101794.16;;;2.14;64.77
49835;BME280;35729;52.090;13.162;2023-04-05T08:08:16;101791.03;;;2.24;65.16
49835;BME280;35729;52.090;13.162;2023-04-05T08:10:45;101789.56;;;2.34;63.90
49835;BME280;35729;52.090;13.162;2023-04-05T08:13:16;101785.53;;;2.43;65.42
49835;BME280;35729;52.090;13.162;2023-04-05T08:15:44;101791.84;;;2.53;63.46
49835;BME280;35729;52.090;13.162;2023-04-05T08:18:13;101786.94;;;2.63;64.54
49835;BME280;35729;52.090;13.162;2023-04-05T08:20:41;101778.41;;;2.67;64.11
49835;BME280;35729;52.090;13.162;2023-04-05T08:23:09;101781.31;;;2.79;64.49
49835;BME280;35729;52.090;13.162;2023-04-05T08:25:38;101789.38;;;2.88;64.10
49835;BME280;35729;52.090;13.162;2023-04-05T08:28:06;101785.25;;;2.97;63.40
49835;BME280;35729;52.090;13.162;2023-04-05T08:30:38;101788.09;;;3.06;60.00
49835;BME280;35729;52.090;13.162;2023-04-05T08:33:06;101790.13;;;3.18;60.04
49835;BME280;35729;52.090;13.162;2023-04-05T08:35:35;101779.06;;;3.25;58.36
49835;BME280;35729;52.090;13.162;2023-04-05T08:38:05;101782.84;;;3.38;60.43
49835;BME280;35729;52.090;13.162;2023-04-05T08:40:39;101778.66;;;3.45;58.67
49835;BME280;35729;52.090;13.162;2023-04-05T08:43:12;101772.81;;;3.53;59.56
49835;BME280;35729;52.090;13.162;2023-04-05T08:45:46;101775.63;;;3.63;59.05
49835;BME280;35729;52.090;13.162;2023-04-05T08:48:16;101776.72;;;3.72;60.27
49835;BME280;35729;52.090;13.162;2023-04-05T08:50:49;101777.69;;;3.76;54.28
49835;BME280;35729;52.090;13.162;2023-04-05T08:53:18;101769.22;;;3.85;57.86
49835;BME280;35729;52.090;13.162;2023-04-05T08:55:48;101772.88;;;3.93;58.25
49835;BME280;35729;52.090;13.162;2023-04-05T08:58:19;101774.75;;;4.00;55.70
49835;BME280;35729;52.090;13.162;2023-04-05T09:00:51;101774.91;;;4.08;57.41
49835;BME280;35729;52.090;13.162;2023-04-05T09:03:21;101770.75;;;4.15;56.96
49835;BME280;35729;52.090;13.162;2023-04-05T09:05:51;101770.00;;;4.22;56.21
49835;BME280;35729;52.090;13.162;2023-04-05T09:08:20;101767.53;;;4.28;55.01
49835;BME280;35729;52.090;13.162;2023-04-05T09:10:48;101764.22;;;4.35;55.17
49835;BME280;35729;52.090;13.162;2023-04-05T09:13:18;101766.09;;;4.41;55.18
49835;BME280;35729;52.090;13.162;2023-04-05T09:15:47;101762.72;;;4.47;54.27
49835;BME280;35729;52.090;13.162;2023-04-05T09:18:19;101761.06;;;4.50;50.07
49835;BME280;35729;52.090;13.162;2023-04-05T09:20:47;101770.69;;;4.56;51.72
49835;BME280;35729;52.090;13.162;2023-04-05T09:23:16;101763.03;;;4.62;52.60
49835;BME280;35729;52.090;13.162;2023-04-05T09:25:44;101762.25;;;4.66;53.57
49835;BME280;35729;52.090;13.162;2023-04-05T09:28:17;101769.22;;;4.69;49.53
49835;BME280;35729;52.090;13.162;2023-04-05T09:30:46;101765.84;;;4.73;52.34
49835;BME280;35729;52.090;13.162;2023-04-05T09:33:17;101765.00;;;4.76;52.78
49835;BME280;35729;52.090;13.162;2023-04-05T09:35:51;101764.19;;;4.78;50.63
49835;BME280;35729;52.090;13.162;2023-04-05T09:38:41;101764.25;;;4.81;49.33
49835;BME280;35729;52.090;13.162;2023-04-05T09:41:09;101757.50;;;4.91;52.79
49835;BME280;35729;52.090;13.162;2023-04-05T09:43:39;101768.00;;;4.97;51.12
49835;BME280;35729;52.090;13.162;2023-04-05T09:46:28;101762.84;;;5.00;48.04
49835;BME280;35729;52.090;13.162;2023-04-05T09:48:58;101767.31;;;5.08;51.13
49835;BME280;35729;52.090;13.162;2023-04-05T09:51:35;101761.28;;;5.10;46.07
49835;BME280;35729;52.090;13.162;2023-04-05T09:54:05;101763.97;;;5.15;49.66
49835;BME280;35729;52.090;13.162;2023-04-05T09:56:36;101744.13;;;5.20;50.75
49835;BME280;35729;52.090;13.162;2023-04-05T09:59:06;101746.81;;;5.26;51.14
49835;BME280;35729;52.090;13.162;2023-04-05T10:01:35;101752.94;;;5.30;47.92
49835;BME280;35729;52.090;13.162;2023-04-05T10:04:04;101742.69;;;5.41;49.07
49835;BME280;35729;52.090;13.162;2023-04-05T10:06:39;101754.16;;;5.52;45.29
49835;BME280;35729;52.090;13.162;2023-04-05T10:09:09;101743.00;;;5.61;48.69
49835;BME280;35729;52.090;13.162;2023-04-05T10:11:41;101736.13;;;5.64;48.39
49835;BME280;35729;52.090;13.162;2023-04-05T10:14:11;101740.50;;;5.68;49.61
49835;BME280;35729;52.090;13.162;2023-04-05T10:16:52;101735.44;;;5.78;46.00
49835;BME280;35729;52.090;13.162;2023-04-05T10:19:26;101739.00;;;5.84;44.81
49835;BME280;35729;52.090;13.162;2023-04-05T10:21:59;101747.72;;;5.86;44.47
49835;BME280;35729;52.090;13.162;2023-04-05T10:24:33;101742.53;;;5.90;47.16
49835;BME280;35729;52.090;13.162;2023-04-05T10:27:04;101741.72;;;5.92;47.83
49835;BME280;35729;52.090;13.162;2023-04-05T10:29:42;101736.50;;;5.94;46.59
49835;BME280;35729;52.090;13.162;2023-04-05T10:32:17;101729.72;;;6.00;48.18
49835;BME280;35729;52.090;13.162;2023-04-05T10:34:48;101733.28;;;6.09;44.99
49835;BME280;35729;52.090;13.162;2023-04-05T10:37:29;101729.91;;;6.17;48.20
49835;BME280;35729;52.090;13.162;2023-04-05T10:40:03;101729.16;;;6.26;46.05
49835;BME280;35729;52.090;13.162;2023-04-05T10:42:40;101723.09;;;6.30;44.87
49835;BME280;35729;52.090;13.162;2023-04-05T10:45:11;101736.97;;;6.26;43.51
49835;BME280;35729;52.090;13.162;2023-04-05T10:47:47;101727.38;;;6.22;45.14
49835;BME280;35729;52.090;13.162;2023-04-05T10:50:21;101721.25;;;6.22;45.79
49835;BME280;35729;52.090;13.162;2023-04-05T10:52:53;101720.47;;;6.26;46.89
49835;BME280;35729;52.090;13.162;2023-04-05T10:55:23;101715.34;;;6.36;47.57
49835;BME280;35729;52.090;13.162;2023-04-05T10:57:53;101715.47;;;6.46;46.58
49835;BME280;35729;52.090;13.162;2023-04-05T11:00:22;101711.22;;;6.56;46.43
49835;BME280;35729;52.090;13.162;2023-04-05T11:02:53;101725.16;;;6.59;40.52
49835;BME280;35729;52.090;13.162;2023-04-05T11:05:29;101716.47;;;6.57;41.82
49835;BME280;35729;52.090;13.162;2023-04-05T11:08:03;101710.41;;;6.60;44.57
49835;BME280;35729;52.090;13.162;2023-04-05T11:10:34;101715.66;;;6.63;44.05
49835;BME280;35729;52.090;13.162;2023-04-05T11:13:04;101718.25;;;6.64;41.51
49835;BME280;35729;52.090;13.162;2023-04-05T11:15:34;101711.28;;;6.60;38.79
49835;BME280;35729;52.090;13.162;2023-04-05T11:18:04;101712.97;;;6.58;37.55
49835;BME280;35729;52.090;13.162;2023-04-05T11:20:44;101711.28;;;6.59;39.86
49835;BME280;35729;52.090;13.162;2023-04-05T11:23:16;101716.47;;;6.57;40.14
49835;BME280;35729;52.090;13.162;2023-04-05T11:25:48;101713.91;;;6.63;41.02
49835;BME280;35729;52.090;13.162;2023-04-05T11:28:25;101704.44;;;6.72;39.79
49835;BME280;35729;52.090;13.162;2023-04-05T11:30:56;101692.38;;;6.84;42.76
49835;BME280;35729;52.090;13.162;2023-04-05T11:33:36;101690.78;;;7.00;40.69
49835;BME280;35729;52.090;13.162;2023-04-05T11:36:11;101688.31;;;7.19;41.99
49835;BME280;35729;52.090;13.162;2023-04-05T11:38:45;101693.66;;;7.33;41.02
49835;BME280;35729;52.090;13.162;2023-04-05T11:41:14;101695.44;;;7.45;40.79
49835;BME280;35729;52.090;13.162;2023-04-05T11:43:43;101692.88;;;7.54;41.32
49835;BME280;35729;52.090;13.162;2023-04-05T11:46:12;101693.81;;;7.61;38.94
49835;BME280;35729;52.090;13.162;2023-04-05T11:48:40;101690.34;;;7.65;41.32
49835;BME280;35729;52.090;13.162;2023-04-05T11:51:09;101685.16;;;7.70;41.02
49835;BME280;35729;52.090;13.162;2023-04-05T11:53:37;101691.28;;;7.78;40.78
49835;BME280;35729;52.090;13.162;2023-04-05T11:56:09;101686.94;;;7.81;39.38
49835;BME280;35729;52.090;13.162;2023-04-05T11:58:40;101683.50;;;7.89;39.19
49835;BME280;35729;52.090;13.162;2023-04-05T12:01:09;101678.31;;;7.95;40.68
49835;BME280;35729;52.090;13.162;2023-04-05T12:03:37;101689.63;;;7.95;37.90
49835;BME280;35729;52.090;13.162;2023-04-05T12:06:06;101674.81;;;7.96;40.43
49835;BME280;35729;52.090;13.162;2023-04-05T12:08:39;101676.56;;;7.98;40.79
49835;BME280;35729;52.090;13.162;2023-04-05T12:11:23;101670.47;;;7.99;38.60
49835;BME280;35729;52.090;13.162;2023-04-05T12:13:53;101676.59;;;8.02;41.59
49835;BME280;35729;52.090;13.162;2023-04-05T12:16:23;101660.03;;;8.04;40.96
49835;BME280;35729;52.090;13.162;2023-04-05T12:18:53;101680.97;;;8.03;38.23
49835;BME280;35729;52.090;13.162;2023-04-05T12:21:22;101674.81;;;7.94;40.14
49835;BME280;35729;52.090;13.162;2023-04-05T12:23:52;101679.16;;;7.91;40.61
49835;BME280;35729;52.090;13.162;2023-04-05T12:26:23;101675.69;;;7.89;39.53
49835;BME280;35729;52.090;13.162;2023-04-05T12:28:54;101678.28;;;7.90;38.60
49835;BME280;35729;52.090;13.162;2023-04-05T12:31:36;101672.13;;;7.82;37.54
49835;BME280;35729;52.090;13.162;2023-04-05T12:34:05;101668.63;;;7.77;40.46
49835;BME280;35729;52.090;13.162;2023-04-05T12:36:34;101665.13;;;7.69;39.33
49835;BME280;35729;52.090;13.162;2023-04-05T12:39:06;101665.94;;;7.63;40.26
49835;BME280;35729;52.090;13.162;2023-04-05T12:41:37;101665.94;;;7.60;40.39
49835;BME280;35729;52.090;13.162;2023-04-05T12:44:10;101661.59;;;7.57;40.31
49835;BME280;35729;52.090;13.162;2023-04-05T12:46:40;101659.84;;;7.56;41.50
49835;BME280;35729;52.090;13.162;2023-04-05T12:49:12;101660.69;;;7.57;41.37
49835;BME280;35729;52.090;13.162;2023-04-05T12:51:42;101658.97;;;7.57;41.77
49835;BME280;35729;52.090;13.162;2023-04-05T12:54:11;101659.84;;;7.59;41.85
49835;BME280;35729;52.090;13.162;2023-04-05T12:56:43;101654.59;;;7.58;40.44
49835;BME280;35729;52.090;13.162;2023-04-05T12:59:12;101644.13;;;7.53;41.79
49835;BME280;35729;52.090;13.162;2023-04-05T13:01:40;101652.91;;;7.61;42.22
49835;BME280;35729;52.090;13.162;2023-04-05T13:04:09;101646.81;;;7.65;41.99
49835;BME280;35729;52.090;13.162;2023-04-05T13:06:38;101641.63;;;7.70;41.30